Time;durP1;ratioP1;P1;durP2;ratioP2;P2;SDS_P1;SDS_P2;PMS_P1;PMS_P2;Temp;Humidity;BMP_temperature;BMP_pressure;BME280_temperature;BME280_humidity;BME280_pressure;Samples;Min_cycle;Max_cycle;Signal;HPM_P1;HPM_P2
2022/03/11 00:00:28;;;;;;;8.70;5.60;;;;;;-10127.07;;;;107270;1271;64955;-35
2022/03/11 00:03:08;;;;;;;9.00;5.30;;;;;;-10251.98;;;;107263;1271;64743;-35
2022/03/11 00:05:35;;;;;;;8.10;5.00;;;;;;-10127.07;;;;107329;1271;64881;-35
2022/03/11 00:08:03;;;;;;;8.10;5.30;;;;;;-10251.98;;;;107265;1271;64873;-35
2022/03/11 00:10:30;;;;;;;7.70;4.80;;;;;;-10127.07;;;;107298;1271;64751;-35
2022/03/11 00:12:58;;;;;;;7.90;4.60;;;;;;-10251.98;;;;107287;1271;64740;-35
2022/03/11 00:15:25;;;;;;;8.30;4.90;;;;;;-10127.07;;;;107276;1271;65559;-36
2022/03/11 00:17:52;;;;;;;8.20;5.40;;;;;;-10002.16;;;;107206;1274;64866;-35
2022/03/11 00:20:20;;;;;;;7.60;5.00;;;;;;-10376.89;;;;107279;1271;64856;-27
2022/03/11 00:22:52;;;;;;;7.60;4.80;;;;;;-10376.89;;;;107279;1271;64760;-27
2022/03/11 00:25:21;;;;;;;7.30;4.80;;;;;;-10127.07;;;;107271;1271;64776;-27
2022/03/11 00:27:48;;;;;;;7.90;4.70;;;;;;-10251.98;;;;107290;1272;64751;-27
2022/03/11 00:30:16;;;;;;;7.00;4.60;;;;;;-10127.07;;;;107301;1271;64762;-39
2022/03/11 00:32:43;;;;;;;8.40;4.80;;;;;;-10376.89;;;;107309;1271;64747;-34
2022/03/11 00:35:11;;;;;;;7.60;4.90;;;;;;-10127.07;;;;107255;1272;64862;-28
2022/03/11 00:37:41;;;;;;;7.50;4.60;;;;;;-10376.89;;;;107251;1274;64827;-26
2022/03/11 00:40:09;;;;;;;7.60;4.30;;;;;;-10251.98;;;;107283;1271;64706;-27
2022/03/11 00:42:36;;;;;;;7.80;4.70;;;;;;-10002.16;;;;107300;1271;64734;-28
2022/03/11 00:45:05;;;;;;;7.20;4.70;;;;;;-10251.98;;;;107295;1271;64003;-29
2022/03/11 00:47:32;;;;;;;6.90;4.20;;;;;;-10002.16;;;;107299;1271;64839;-28
2022/03/11 00:50:00;;;;;;;7.70;4.70;;;;;;-10002.16;;;;107156;1274;64825;-32
2022/03/11 00:52:28;;;;;;;7.60;4.70;;;;;;-10127.07;;;;107259;1271;65026;-28
2022/03/11 00:54:55;;;;;;;7.30;4.70;;;;;;-10127.07;;;;107283;1271;64680;-27
2022/03/11 00:57:22;;;;;;;6.80;4.20;;;;;;-10127.07;;;;107266;1271;64768;-27
2022/03/11 00:59:49;;;;;;;7.20;4.70;;;;;;-10251.98;;;;107241;1274;64864;-36
2022/03/11 01:02:17;;;;;;;7.40;4.30;;;;;;-10127.07;;;;107269;1271;64782;-35
2022/03/11 01:04:47;;;;;;;7.40;4.70;;;;;;-10127.07;;;;107262;1271;64733;-32
2022/03/11 01:07:14;;;;;;;7.70;4.70;;;;;;-10127.07;;;;107281;1271;64764;-27
2022/03/11 01:09:41;;;;;;;7.00;4.60;;;;;;-10501.80;;;;107231;1272;64810;-31
2022/03/11 01:12:09;;;;;;;7.00;4.60;;;;;;-10376.89;;;;107259;1271;64849;-28
2022/03/11 01:14:36;;;;;;;7.20;4.70;;;;;;-10251.98;;;;107276;1271;64718;-27
2022/03/11 01:17:03;;;;;;;8.00;4.90;;;;;;-10127.07;;;;107251;1271;64757;-28
2022/03/11 01:19:31;;;;;;;8.00;4.80;;;;;;-10127.07;;;;107290;1271;64881;-36
2022/03/11 01:21:58;;;;;;;8.70;5.10;;;;;;-10002.16;;;;107249;1271;64762;-35
2022/03/11 01:24:25;;;;;;;7.80;4.90;;;;;;-10251.98;;;;107263;1271;64834;-40
2022/03/11 01:26:52;;;;;;;7.90;5.20;;;;;;-10002.16;;;;107263;1271;64788;-36
2022/03/11 01:29:19;;;;;;;8.00;5.10;;;;;;-10251.98;;;;107245;1271;64888;-37
2022/03/11 01:31:47;;;;;;;8.30;4.80;;;;;;-10002.16;;;;107250;1272;64863;-35
2022/03/11 01:34:15;;;;;;;7.70;4.90;;;;;;-10127.07;;;;107290;1271;64736;-28
2022/03/11 01:36:43;;;;;;;8.70;5.40;;;;;;-10376.89;;;;107308;1271;64841;-27
2022/03/11 01:39:11;;;;;;;8.70;5.50;;;;;;-10251.98;;;;107276;1271;64862;-33
2022/03/11 01:41:39;;;;;;;8.80;6.00;;;;;;-10127.07;;;;107249;1271;64765;-36
2022/03/11 01:44:08;;;;;;;9.40;6.00;;;;;;-10127.07;;;;107259;1274;64789;-30
2022/03/11 01:46:36;;;;;;;9.10;6.00;;;;;;-10127.07;;;;107280;1273;66150;-28
2022/03/11 01:49:07;;;;;;;8.80;5.80;;;;;;-10002.16;;;;107266;1274;64869;-27
2022/03/11 01:51:39;;;;;;;8.90;5.80;;;;;;-10002.16;;;;107257;1273;64737;-28
2022/03/11 01:54:07;;;;;;;8.80;6.20;;;;;;-10127.07;;;;107282;1271;64747;-34
2022/03/11 01:56:36;;;;;;;9.40;6.60;;;;;;-10127.07;;;;107312;1274;64699;-35
2022/03/11 01:59:05;;;;;;;10.20;6.30;;;;;;-10376.89;;;;107287;1271;65305;-35
2022/03/11 02:01:34;;;;;;;8.90;6.20;;;;;;-10127.07;;;;107237;1271;64951;-30
2022/03/11 02:04:01;;;;;;;10.10;6.60;;;;;;-10127.07;;;;107243;1271;64748;-29
2022/03/11 02:06:29;;;;;;;10.00;6.60;;;;;;-10251.98;;;;107245;1271;64776;-27
2022/03/11 02:08:58;;;;;;;11.40;6.70;;;;;;-10002.16;;;;107288;1271;65430;-33
2022/03/11 02:11:25;;;;;;;11.40;7.30;;;;;;-10501.80;;;;107334;1270;64957;-27
2022/03/11 02:13:59;;;;;;;11.00;7.30;;;;;;-10251.98;;;;107237;1271;64726;-27
2022/03/11 02:16:29;;;;;;;10.60;7.20;;;;;;-10127.07;;;;107285;1271;64774;-27
2022/03/11 02:18:58;;;;;;;11.10;7.40;;;;;;-10501.80;;;;107258;1270;64745;-28
2022/03/11 02:21:27;;;;;;;10.90;7.90;;;;;;-10127.07;;;;107274;1271;64840;-38
2022/03/11 02:23:57;;;;;;;11.00;8.20;;;;;;-10127.07;;;;107292;1271;64773;-33
2022/03/11 02:26:29;;;;;;;11.20;7.80;;;;;;-10501.80;;;;107266;1271;64846;-28
2022/03/11 02:28:59;;;;;;;10.10;8.00;;;;;;-10251.98;;;;107246;1271;64853;-29
2022/03/11 02:31:29;;;;;;;12.00;8.40;;;;;;-10251.98;;;;107270;1271;64848;-34
2022/03/11 02:33:58;;;;;;;11.30;8.00;;;;;;-10002.16;;;;107199;1274;64841;-35
2022/03/11 02:36:25;;;;;;;13.40;9.10;;;;;;-10002.16;;;;107302;1271;64719;-27
2022/03/11 02:38:54;;;;;;;12.50;9.50;;;;;;-10251.98;;;;107310;1271;64843;-27
2022/03/11 02:41:22;;;;;;;12.50;9.10;;;;;;-10251.98;;;;107279;1271;64891;-28
2022/03/11 02:43:49;;;;;;;13.00;9.30;;;;;;-10127.07;;;;107232;1274;64834;-28
2022/03/11 02:46:17;;;;;;;14.50;10.10;;;;;;-10501.80;;;;107275;1271;64849;-28
2022/03/11 02:48:45;;;;;;;13.20;9.60;;;;;;-10251.98;;;;107228;1273;64828;-28
2022/03/11 02:51:12;;;;;;;12.40;9.50;;;;;;-10251.98;;;;107254;1271;64851;-34
2022/03/11 02:53:41;;;;;;;13.80;10.00;;;;;;-10127.07;;;;107224;1274;64760;-35
2022/03/11 02:56:10;;;;;;;12.60;9.30;;;;;;-10376.89;;;;107271;1271;64750;-33
2022/03/11 02:58:40;;;;;;;14.20;10.50;;;;;;-10002.16;;;;107272;1271;64869;-28
2022/03/11 03:01:09;;;;;;;15.10;10.70;;;;;;-10127.07;;;;107175;1274;64891;-35
2022/03/11 03:03:37;;;;;;;14.40;10.20;;;;;;-10002.16;;;;107228;1271;64830;-35
2022/03/11 03:06:05;;;;;;;15.00;10.70;;;;;;-10002.16;;;;107273;1271;64856;-28
2022/03/11 03:08:32;;;;;;;14.90;11.00;;;;;;-10127.07;;;;107275;1271;64811;-27
2022/03/11 03:11:00;;;;;;;15.30;11.40;;;;;;-10127.07;;;;107268;1271;64008;-34
2022/03/11 03:13:27;;;;;;;14.80;11.00;;;;;;-10127.07;;;;107279;1271;64842;-35
2022/03/11 03:15:55;;;;;;;14.50;11.20;;;;;;-10002.16;;;;107244;1271;64885;-28
2022/03/11 03:18:23;;;;;;;15.40;12.00;;;;;;-10127.07;;;;107263;1271;64749;-27
2022/03/11 03:20:50;;;;;;;15.00;11.00;;;;;;-10251.98;;;;107279;1271;64757;-27
2022/03/11 03:23:17;;;;;;;15.20;11.70;;;;;;-10127.07;;;;107260;1271;64951;-27
2022/03/11 03:25:45;;;;;;;16.10;11.50;;;;;;-10251.98;;;;107246;1271;64734;-35
2022/03/11 03:28:13;;;;;;;14.80;11.50;;;;;;-10002.16;;;;107280;1271;64725;-35
2022/03/11 03:30:40;;;;;;;16.00;12.00;;;;;;-10251.98;;;;107275;1271;64744;-35
2022/03/11 03:33:07;;;;;;;16.50;12.70;;;;;;-10251.98;;;;107176;1274;64968;-36
2022/03/11 03:35:35;;;;;;;18.20;12.50;;;;;;-10251.98;;;;107303;1271;64769;-29
2022/03/11 03:38:02;;;;;;;15.00;11.50;;;;;;-10251.98;;;;107244;1271;65577;-28
2022/03/11 03:40:29;;;;;;;15.40;11.80;;;;;;-10002.16;;;;107247;1271;64849;-36
2022/03/11 03:42:56;;;;;;;15.20;11.90;;;;;;-10501.80;;;;107260;1271;64982;-35
2022/03/11 03:45:24;;;;;;;14.90;12.00;;;;;;-10251.98;;;;107257;1271;64750;-27
2022/03/11 03:47:51;;;;;;;16.10;11.40;;;;;;-10376.89;;;;107314;1271;64878;-27
2022/03/11 03:50:18;;;;;;;15.70;11.90;;;;;;-10251.98;;;;107270;1271;64200;-28
2022/03/11 03:52:46;;;;;;;16.40;11.70;;;;;;-10127.07;;;;107252;1271;64874;-27
2022/03/11 03:55:13;;;;;;;15.40;11.80;;;;;;-10376.89;;;;107263;1271;64735;-35
2022/03/11 03:57:40;;;;;;;17.90;12.20;;;;;;-10251.98;;;;107261;1271;64964;-42
2022/03/11 04:00:08;;;;;;;16.60;13.10;;;;;;-10376.89;;;;107268;1271;64735;-38
2022/03/11 04:02:37;;;;;;;16.20;11.60;;;;;;-10127.07;;;;107279;1271;64830;-36
2022/03/11 04:05:04;;;;;;;15.50;11.80;;;;;;-10002.16;;;;107295;1270;64715;-28
2022/03/11 04:07:31;;;;;;;14.40;11.30;;;;;;-10251.98;;;;107257;1271;64831;-28
2022/03/11 04:09:59;;;;;;;16.90;11.80;;;;;;-10251.98;;;;107287;1271;64734;-27
2022/03/11 04:12:26;;;;;;;16.90;11.30;;;;;;-10376.89;;;;107298;1271;64724;-27
2022/03/11 04:14:53;;;;;;;16.10;12.20;;;;;;-10127.07;;;;107271;1271;64652;-27
2022/03/11 04:17:21;;;;;;;14.70;12.30;;;;;;-10127.07;;;;107230;1271;64836;-27
2022/03/11 04:19:48;;;;;;;16.20;11.50;;;;;;-10002.16;;;;107270;1271;64756;-33
2022/03/11 04:22:15;;;;;;;16.20;11.70;;;;;;-10501.80;;;;107249;1271;64715;-35
2022/03/11 04:24:43;;;;;;;15.70;11.90;;;;;;-10251.98;;;;107272;1271;64855;-35
2022/03/11 04:27:10;;;;;;;16.00;11.90;;;;;;-10251.98;;;;106945;1271;371717;-35
2022/03/11 04:29:37;;;;;;;15.90;11.90;;;;;;-10127.07;;;;107256;1272;64626;-27
2022/03/11 04:32:05;;;;;;;16.70;12.40;;;;;;-10251.98;;;;107266;1271;64832;-27
2022/03/11 04:34:32;;;;;;;18.20;12.20;;;;;;-10127.07;;;;107283;1271;64800;-27
2022/03/11 04:37:00;;;;;;;16.50;11.60;;;;;;-10251.98;;;;107256;1271;64908;-27
2022/03/11 04:39:27;;;;;;;16.00;11.30;;;;;;-10127.07;;;;107239;1274;64728;-34
2022/03/11 04:41:54;;;;;;;15.20;11.20;;;;;;-10251.98;;;;107262;1271;64773;-35
2022/03/11 04:44:22;;;;;;;15.80;11.20;;;;;;-10127.07;;;;107202;1273;64748;-35
2022/03/11 04:46:50;;;;;;;15.90;11.80;;;;;;-10002.16;;;;107241;1274;64804;-34
2022/03/11 04:49:17;;;;;;;16.90;11.90;;;;;;-10251.98;;;;107273;1271;64757;-27
2022/03/11 04:51:44;;;;;;;14.20;11.50;;;;;;-10376.89;;;;107261;1271;65183;-27
2022/03/11 04:54:12;;;;;;;17.30;12.40;;;;;;-10127.07;;;;107263;1271;64852;-34
2022/03/11 04:56:39;;;;;;;13.10;10.40;;;;;;-10251.98;;;;107247;1271;64846;-35
2022/03/11 04:59:06;;;;;;;15.50;11.70;;;;;;-10251.98;;;;107264;1274;64713;-40
2022/03/11 05:01:33;;;;;;;15.60;10.80;;;;;;-10127.07;;;;107268;1274;64971;-35
2022/03/11 05:04:00;;;;;;;15.90;11.50;;;;;;-10002.16;;;;107289;1271;64891;-33
2022/03/11 05:06:27;;;;;;;15.50;11.40;;;;;;-10251.98;;;;107219;1272;64723;-35
2022/03/11 05:08:54;;;;;;;14.90;10.60;;;;;;-10127.07;;;;107266;1270;64734;-35
2022/03/11 05:11:22;;;;;;;14.90;11.50;;;;;;-10251.98;;;;107249;1270;64849;-35
2022/03/11 05:13:50;;;;;;;15.60;11.50;;;;;;-10376.89;;;;107242;1271;65932;-35
2022/03/11 05:16:17;;;;;;;15.30;10.90;;;;;;-10002.16;;;;107259;1271;64851;-27
2022/03/11 05:18:45;;;;;;;15.40;11.30;;;;;;-10251.98;;;;107289;1271;64780;-28
2022/03/11 05:21:12;;;;;;;14.80;10.60;;;;;;-10127.07;;;;107261;1271;65813;-28
2022/03/11 05:23:40;;;;;;;15.20;10.90;;;;;;-10251.98;;;;107265;1271;64852;-27
2022/03/11 05:26:24;;;;;;;14.00;10.80;;;;;;-10127.07;;;;107283;1271;64848;-35
2022/03/11 05:28:59;;;;;;;15.10;11.10;;;;;;-10127.07;;;;107271;1274;65770;-35
2022/03/11 05:31:27;;;;;;;14.40;10.70;;;;;;-10127.07;;;;107240;1271;64872;-27
2022/03/11 05:33:55;;;;;;;15.20;10.70;;;;;;-10376.89;;;;107189;1274;64771;-27
2022/03/11 05:36:22;;;;;;;14.30;10.60;;;;;;-10127.07;;;;107227;1272;65019;-28
2022/03/11 05:38:50;;;;;;;15.10;10.30;;;;;;-10251.98;;;;107257;1271;64860;-26
2022/03/11 05:41:19;;;;;;;14.00;10.20;;;;;;-10002.16;;;;107297;1271;64737;-35
2022/03/11 05:43:46;;;;;;;13.00;10.60;;;;;;-10127.07;;;;107251;1271;64964;-35
2022/03/11 05:46:14;;;;;;;15.70;11.40;;;;;;-10376.89;;;;107272;1271;65394;-27
2022/03/11 05:48:42;;;;;;;14.20;11.00;;;;;;-10251.98;;;;107258;1271;64766;-27
2022/03/11 05:51:09;;;;;;;15.40;10.70;;;;;;-10501.80;;;;107303;1271;65873;-27
2022/03/11 05:53:37;;;;;;;15.40;10.10;;;;;;-10251.98;;;;107170;1274;64798;-28
2022/03/11 05:56:04;;;;;;;15.20;10.40;;;;;;-10251.98;;;;107243;1273;65457;-35
2022/03/11 05:58:31;;;;;;;14.00;10.50;;;;;;-10002.16;;;;107277;1270;64725;-35
2022/03/11 06:00:59;;;;;;;14.10;9.80;;;;;;-10376.89;;;;107252;1271;64616;-27
2022/03/11 06:03:26;;;;;;;16.40;10.70;;;;;;-10251.98;;;;107273;1271;64827;-28
2022/03/11 06:05:54;;;;;;;14.60;10.70;;;;;;-10376.89;;;;107326;1271;65962;-28
2022/03/11 06:08:22;;;;;;;14.80;10.30;;;;;;-10251.98;;;;107254;1274;64731;-35
2022/03/11 06:10:50;;;;;;;14.90;10.30;;;;;;-10127.07;;;;107271;1271;64754;-26
2022/03/11 06:13:17;;;;;;;14.90;10.50;;;;;;-10251.98;;;;107156;1274;64979;-27
2022/03/11 06:15:45;;;;;;;15.20;10.50;;;;;;-10251.98;;;;107267;1271;62202;-35
2022/03/11 06:18:17;;;;;;;14.10;10.00;;;;;;-10002.16;;;;107283;1271;64983;-35
2022/03/11 06:20:45;;;;;;;15.00;10.50;;;;;;-10127.07;;;;107257;1274;64763;-27
2022/03/11 06:23:13;;;;;;;14.70;10.20;;;;;;-10376.89;;;;107293;1271;64866;-28
2022/03/11 06:25:42;;;;;;;14.20;10.40;;;;;;-10251.98;;;;107244;1271;64829;-28
2022/03/11 06:28:10;;;;;;;14.30;10.10;;;;;;-10127.07;;;;107314;1271;64635;-28
2022/03/11 06:30:37;;;;;;;13.60;9.50;;;;;;-10251.98;;;;107274;1271;65843;-33
2022/03/11 06:33:06;;;;;;;14.40;9.60;;;;;;-10251.98;;;;107224;1271;64709;-34
2022/03/11 06:35:34;;;;;;;13.80;10.10;;;;;;-10376.89;;;;107312;1271;64769;-33
2022/03/11 06:38:03;;;;;;;13.80;9.70;;;;;;-10002.16;;;;107249;1272;64761;-35
2022/03/11 06:40:31;;;;;;;14.10;9.90;;;;;;-10002.16;;;;107338;1271;64852;-34
2022/03/11 06:42:58;;;;;;;12.30;9.10;;;;;;-10127.07;;;;107239;1274;64858;-34
2022/03/11 06:45:25;;;;;;;14.10;9.30;;;;;;-10251.98;;;;107237;1271;64990;-37
2022/03/11 06:47:52;;;;;;;12.50;9.00;;;;;;-10251.98;;;;107240;1271;64843;-33
2022/03/11 06:50:20;;;;;;;14.40;10.00;;;;;;-10127.07;;;;107317;1271;64872;-27
2022/03/11 06:52:47;;;;;;;14.00;9.20;;;;;;-10127.07;;;;107302;1271;64839;-28
2022/03/11 06:55:14;;;;;;;12.90;9.00;;;;;;-10251.98;;;;107254;1274;64879;-28
2022/03/11 06:57:42;;;;;;;13.30;9.40;;;;;;-10127.07;;;;107202;1274;64872;-26
2022/03/11 07:00:10;;;;;;;13.80;9.40;;;;;;-10501.80;;;;107302;1271;64806;-35
2022/03/11 07:02:39;;;;;;;12.00;8.70;;;;;;-10002.16;;;;107272;1271;64849;-35
2022/03/11 07:05:08;;;;;;;13.80;9.60;;;;;;-10002.16;;;;107299;1274;64750;-35
2022/03/11 07:07:36;;;;;;;13.20;8.80;;;;;;-10127.07;;;;107304;1274;64771;-35
2022/03/11 07:10:07;;;;;;;11.70;8.60;;;;;;-10251.98;;;;107265;1271;64875;-27
2022/03/11 07:12:34;;;;;;;13.00;8.50;;;;;;-10251.98;;;;107279;1271;64838;-27
2022/03/11 07:15:04;;;;;;;12.50;9.20;;;;;;-10251.98;;;;107293;1271;64909;-27
2022/03/11 07:17:32;;;;;;;11.40;8.20;;;;;;-10376.89;;;;107321;1271;64846;-30
2022/03/11 07:19:59;;;;;;;12.80;8.90;;;;;;-10002.16;;;;107319;1271;64868;-34
2022/03/11 07:22:27;;;;;;;10.30;7.70;;;;;;-10002.16;;;;107257;1271;64965;-26
2022/03/11 07:24:55;;;;;;;12.60;9.40;;;;;;-10127.07;;;;107260;1271;64803;-37
2022/03/11 07:27:24;;;;;;;12.40;8.20;;;;;;-10501.80;;;;107232;1271;64884;-35
2022/03/11 07:29:51;;;;;;;11.20;7.80;;;;;;-10376.89;;;;107322;1271;64822;-27
2022/03/11 07:32:18;;;;;;;13.50;9.10;;;;;;-10127.07;;;;107273;1271;64898;-34
2022/03/11 07:34:46;;;;;;;11.40;7.60;;;;;;-10002.16;;;;107274;1271;64750;-35
2022/03/11 07:37:13;;;;;;;11.70;8.30;;;;;;-10251.98;;;;107240;1274;64952;-35
2022/03/11 07:39:42;;;;;;;11.60;8.70;;;;;;-10251.98;;;;107287;1271;64789;-27
2022/03/11 07:42:09;;;;;;;11.00;7.50;;;;;;-10251.98;;;;107314;1271;64658;-28
2022/03/11 07:44:37;;;;;;;10.80;7.60;;;;;;-10127.07;;;;107190;1274;64893;-27
2022/03/11 07:47:04;;;;;;;12.30;7.80;;;;;;-10127.07;;;;107242;1274;64875;-27
2022/03/11 07:49:32;;;;;;;11.60;7.80;;;;;;-10127.07;;;;107295;1271;64800;-34
2022/03/11 07:51:59;;;;;;;11.10;7.50;;;;;;-10127.07;;;;107266;1271;64884;-36
2022/03/11 07:54:27;;;;;;;13.20;8.40;;;;;;-10251.98;;;;107311;1271;64973;-35
2022/03/11 07:56:54;;;;;;;13.10;7.70;;;;;;-10002.16;;;;107283;1271;64744;-35
2022/03/11 07:59:21;;;;;;;14.40;8.50;;;;;;-10002.16;;;;107249;1271;64744;-27
2022/03/11 08:01:49;;;;;;;10.60;7.10;;;;;;-10127.07;;;;107278;1271;64819;-25
2022/03/11 08:04:17;;;;;;;12.10;7.60;;;;;;-10376.89;;;;107253;1271;64909;-27
2022/03/11 08:06:45;;;;;;;9.30;6.60;;;;;;-10002.16;;;;107277;1271;64958;-50
2022/03/11 08:09:12;;;;;;;12.20;7.60;;;;;;-10376.89;;;;107281;1274;64735;-27
2022/03/11 08:11:40;;;;;;;10.00;7.00;;;;;;-10376.89;;;;107251;1271;64747;-28
2022/03/11 08:14:07;;;;;;;9.60;7.10;;;;;;-10251.98;;;;107234;1271;64751;-31
2022/03/11 08:16:35;;;;;;;11.10;7.00;;;;;;-10251.98;;;;107198;1271;64877;-32
2022/03/11 08:19:02;;;;;;;11.40;6.60;;;;;;-10127.07;;;;107265;1271;64739;-33
2022/03/11 08:21:29;;;;;;;11.10;6.90;;;;;;-10251.98;;;;107273;1271;64737;-34
2022/03/11 08:23:56;;;;;;;10.90;6.60;;;;;;-10251.98;;;;107285;1271;64860;-32
2022/03/11 08:26:25;;;;;;;10.10;7.00;;;;;;-10127.07;;;;107275;1271;64872;-35
2022/03/11 08:28:52;;;;;;;10.70;6.40;;;;;;-10251.98;;;;107257;1271;64930;-29
2022/03/11 08:31:19;;;;;;;8.90;6.30;;;;;;-10127.07;;;;107286;1271;64789;-31
2022/03/11 08:33:46;;;;;;;9.30;6.80;;;;;;-10127.07;;;;107262;1271;64743;-36
2022/03/11 08:36:14;;;;;;;9.40;6.30;;;;;;-10002.16;;;;107227;1271;64763;-35
2022/03/11 08:38:42;;;;;;;11.00;5.90;;;;;;-10251.98;;;;107255;1272;64821;-37
2022/03/11 08:41:10;;;;;;;9.10;6.00;;;;;;-10127.07;;;;107276;1271;64770;-38
2022/03/11 08:43:38;;;;;;;10.20;6.10;;;;;;-10127.07;;;;107286;1271;64860;-34
2022/03/11 08:46:08;;;;;;;9.80;6.00;;;;;;-10127.07;;;;107304;1271;64775;-28
2022/03/11 08:48:36;;;;;;;10.30;6.10;;;;;;-10251.98;;;;107264;1270;64872;-39
2022/03/11 08:51:06;;;;;;;9.20;5.60;;;;;;-10376.89;;;;107282;1271;64730;-35
2022/03/11 08:53:33;;;;;;;9.10;5.30;;;;;;-10376.89;;;;107254;1271;64735;-36
2022/03/11 08:56:01;;;;;;;8.90;5.70;;;;;;-10127.07;;;;107185;1271;64764;-29
2022/03/11 08:58:29;;;;;;;8.80;5.90;;;;;;-10002.16;;;;107283;1271;64865;-30
2022/03/11 09:00:56;;;;;;;9.80;5.70;;;;;;-10251.98;;;;107181;1271;64797;-29
2022/03/11 09:03:24;;;;;;;9.10;5.60;;;;;;-10376.89;;;;107249;1271;64698;-27
2022/03/11 09:05:52;;;;;;;10.50;5.90;;;;;;-10376.89;;;;107257;1271;64766;-28
2022/03/11 09:08:19;;;;;;;10.60;5.70;;;;;;-10251.98;;;;107256;1274;64738;-31
2022/03/11 09:10:46;;;;;;;7.90;5.10;;;;;;-10002.16;;;;107185;1274;64898;-29
2022/03/11 09:13:13;;;;;;;9.00;5.30;;;;;;-10251.98;;;;107240;1271;64731;-29
2022/03/11 09:15:41;;;;;;;8.10;5.10;;;;;;-10127.07;;;;107165;1271;65931;-27
2022/03/11 09:18:10;;;;;;;7.90;4.90;;;;;;-10376.89;;;;107250;1271;64695;-29
2022/03/11 09:20:39;;;;;;;8.40;5.00;;;;;;-10127.07;;;;107314;1271;62187;-28
2022/03/11 09:23:07;;;;;;;8.20;4.90;;;;;;-10002.16;;;;107308;1271;64773;-28
2022/03/11 09:25:35;;;;;;;10.70;5.50;;;;;;-10127.07;;;;107273;1271;64817;-27
2022/03/11 09:28:02;;;;;;;8.00;4.80;;;;;;-10251.98;;;;107280;1274;64843;-27
2022/03/11 09:30:29;;;;;;;7.40;4.50;;;;;;-10002.16;;;;107258;1271;64900;-35
2022/03/11 09:32:57;;;;;;;11.60;5.00;;;;;;-10251.98;;;;107276;1271;64840;-34
2022/03/11 09:35:24;;;;;;;7.40;4.70;;;;;;-10251.98;;;;107280;1274;64889;-29
2022/03/11 09:37:52;;;;;;;8.30;5.10;;;;;;-10002.16;;;;107251;1271;64228;-29
2022/03/11 09:40:19;;;;;;;8.70;5.30;;;;;;-10127.07;;;;107259;1271;64725;-29
2022/03/11 09:42:46;;;;;;;8.20;4.80;;;;;;-10127.07;;;;107260;1271;64838;-31
2022/03/11 09:45:13;;;;;;;7.60;4.90;;;;;;-10251.98;;;;107252;1271;64725;-35
2022/03/11 09:47:42;;;;;;;8.30;4.80;;;;;;-10127.07;;;;107267;1271;64758;-48
2022/03/11 09:50:09;;;;;;;7.50;4.80;;;;;;-10127.07;;;;107253;1274;64764;-29
2022/03/11 09:52:37;;;;;;;7.20;4.60;;;;;;-10127.07;;;;107268;1271;64749;-29
2022/03/11 09:55:05;;;;;;;7.70;4.90;;;;;;-10127.07;;;;107191;1271;64713;-29
2022/03/11 09:57:33;;;;;;;8.60;4.80;;;;;;-10127.07;;;;107426;1271;64849;-27
2022/03/11 10:00:00;;;;;;;8.50;4.60;;;;;;-10002.16;;;;106967;1271;64792;-35
2022/03/11 10:02:27;;;;;;;8.70;5.20;;;;;;-10251.98;;;;107082;1271;64881;-33
2022/03/11 10:04:58;;;;;;;7.70;4.80;;;;;;-10376.89;;;;107015;1271;64862;-36
2022/03/11 10:07:28;;;;;;;8.10;4.90;;;;;;-10002.16;;;;109100;1271;62784;-35
2022/03/11 10:09:57;;;;;;;7.70;4.60;;;;;;-10002.16;;;;107758;1271;64875;-50
2022/03/11 10:12:28;;;;;;;7.60;4.10;;;;;;-10127.07;;;;107275;1271;65502;-37
2022/03/11 10:15:04;;;;;;;7.00;4.30;;;;;;-10127.07;;;;107247;1271;64836;-42
2022/03/11 10:17:45;;;;;;;8.10;4.70;;;;;;-10251.98;;;;107274;1271;64618;-29
2022/03/11 10:20:16;;;;;;;8.40;4.70;;;;;;-10127.07;;;;107272;1271;64757;-28
2022/03/11 10:22:45;;;;;;;8.00;5.10;;;;;;-10376.89;;;;107284;1271;64839;-29
2022/03/11 10:25:12;;;;;;;8.90;5.00;;;;;;-10251.98;;;;107297;1271;65727;-33
2022/03/11 10:28:01;;;;;;;7.60;4.60;;;;;;-10376.89;;;;107271;1271;64817;-35
2022/03/11 10:30:37;;;;;;;7.50;4.30;;;;;;-10376.89;;;;107261;1274;64846;-29
2022/03/11 10:33:11;;;;;;;8.60;4.90;;;;;;-10127.07;;;;107270;1271;64731;-29
2022/03/11 10:35:44;;;;;;;7.90;4.90;;;;;;-10251.98;;;;107249;1273;64860;-34
2022/03/11 10:38:26;;;;;;;7.90;4.30;;;;;;-10002.16;;;;107260;1270;65905;-35
2022/03/11 10:40:57;;;;;;;7.80;4.20;;;;;;-10002.16;;;;107135;1271;64781;-32
2022/03/11 10:43:30;;;;;;;8.00;4.60;;;;;;-10002.16;;;;107129;1271;64974;-33
2022/03/11 10:46:10;;;;;;;8.40;4.60;;;;;;-10376.89;;;;107284;1271;64767;-35
2022/03/11 10:48:53;;;;;;;8.90;4.10;;;;;;-10127.07;;;;107258;1271;64741;-31
2022/03/11 10:51:30;;;;;;;6.80;4.10;;;;;;-10376.89;;;;107251;1271;64882;-28
2022/03/11 10:54:04;;;;;;;7.00;3.90;;;;;;-10127.07;;;;107172;1274;64773;-28
2022/03/11 10:56:35;;;;;;;6.60;4.10;;;;;;-10002.16;;;;107184;1274;64986;-32
2022/03/11 10:59:28;;;;;;;6.50;4.00;;;;;;-10127.07;;;;107245;1271;64820;-29
2022/03/11 11:01:57;;;;;;;6.00;3.60;;;;;;-10251.98;;;;107214;1274;64852;-28
2022/03/11 11:04:26;;;;;;;7.00;3.60;;;;;;-10127.07;;;;107177;1274;64759;-29
2022/03/11 11:06:54;;;;;;;8.80;4.00;;;;;;-10251.98;;;;107288;1274;64724;-28
2022/03/11 11:09:23;;;;;;;7.00;3.90;;;;;;-10127.07;;;;107263;1271;65553;-30
2022/03/11 11:11:51;;;;;;;7.20;4.10;;;;;;-10002.16;;;;107242;1274;64758;-35
2022/03/11 11:14:19;;;;;;;8.00;3.50;;;;;;-10127.07;;;;107292;1274;64759;-32
2022/03/11 11:16:49;;;;;;;7.50;3.90;;;;;;-10002.16;;;;107268;1274;65530;-32
2022/03/11 11:19:20;;;;;;;7.10;3.70;;;;;;-10127.07;;;;107262;1271;64956;-34
2022/03/11 11:21:50;;;;;;;6.60;3.70;;;;;;-10002.16;;;;107265;1271;64888;-28
2022/03/11 11:24:24;;;;;;;6.20;3.80;;;;;;-10127.07;;;;107156;1274;64881;-32
2022/03/11 11:26:56;;;;;;;8.00;3.70;;;;;;-10251.98;;;;107315;1271;64747;-36
2022/03/11 11:29:33;;;;;;;6.00;3.30;;;;;;-10251.98;;;;107276;1271;64813;-29
2022/03/11 11:32:01;;;;;;;7.70;3.90;;;;;;-10127.07;;;;107266;1271;64748;-31
2022/03/11 11:34:37;;;;;;;7.10;3.90;;;;;;-10251.98;;;;107309;1271;64835;-28
2022/03/11 11:37:07;;;;;;;5.40;3.20;;;;;;-10127.07;;;;107307;1271;64765;-29
2022/03/11 11:39:39;;;;;;;7.70;3.80;;;;;;-10002.16;;;;107175;1274;64721;-29
2022/03/11 11:42:14;;;;;;;5.70;3.30;;;;;;-10251.98;;;;107302;1271;65880;-28
2022/03/11 11:44:44;;;;;;;6.80;3.20;;;;;;-10376.89;;;;107277;1274;64939;-31
2022/03/11 11:47:22;;;;;;;6.10;3.30;;;;;;-10251.98;;;;107198;1271;64832;-27
2022/03/11 11:49:54;;;;;;;6.70;3.40;;;;;;-10127.07;;;;107250;1271;64953;-28
2022/03/11 11:52:25;;;;;;;5.80;3.30;;;;;;-10127.07;;;;107253;1274;64928;-29
2022/03/11 11:54:53;;;;;;;5.90;2.90;;;;;;-10127.07;;;;107259;1274;65349;-27
2022/03/11 11:57:24;;;;;;;6.20;3.30;;;;;;-10127.07;;;;107153;1274;64843;-27
2022/03/11 11:59:53;;;;;;;6.60;3.40;;;;;;-10251.98;;;;107183;1274;64679;-27
2022/03/11 12:02:32;;;;;;;5.30;2.90;;;;;;-10127.07;;;;107270;1274;64725;-32
2022/03/11 12:05:00;;;;;;;6.40;2.90;;;;;;-10376.89;;;;107148;1274;64830;-36
2022/03/11 12:07:49;;;;;;;5.60;3.00;;;;;;-10127.07;;;;107242;1274;64983;-36
2022/03/11 12:10:27;;;;;;;6.90;3.20;;;;;;-10251.98;;;;107218;1274;65063;-33
2022/03/11 12:12:58;;;;;;;5.50;3.00;;;;;;-10127.07;;;;107133;1273;65049;-35
2022/03/11 12:15:31;;;;;;;5.00;2.70;;;;;;-10127.07;;;;107139;1274;64909;-36
2022/03/11 12:18:02;;;;;;;6.00;3.70;;;;;;-10002.16;;;;107183;1274;64813;-35
2022/03/11 12:20:32;;;;;;;5.60;3.10;;;;;;-10127.07;;;;107199;1274;66319;-36
2022/03/11 12:23:00;;;;;;;6.30;3.20;;;;;;-10501.80;;;;107152;1274;64773;-28
2022/03/11 12:25:35;;;;;;;5.20;2.90;;;;;;-10251.98;;;;106988;1274;377057;-36
2022/03/11 12:28:11;;;;;;;5.20;2.60;;;;;;-10376.89;;;;107187;1274;64715;-35
2022/03/11 12:30:42;;;;;;;5.40;3.00;;;;;;-10251.98;;;;107254;1274;65533;-33
2022/03/11 12:33:41;;;;;;;5.60;3.20;;;;;;-10251.98;;;;107181;1272;64870;-27
2022/03/11 12:36:18;;;;;;;5.70;3.10;;;;;;-10127.07;;;;107242;1274;64724;-29
2022/03/11 12:38:47;;;;;;;4.90;2.50;;;;;;-10251.98;;;;107264;1274;64873;-28
2022/03/11 12:41:23;;;;;;;5.90;3.40;;;;;;-10127.07;;;;107176;1274;64879;-34
2022/03/11 12:43:51;;;;;;;5.60;3.00;;;;;;-10002.16;;;;107273;1274;64879;-31
2022/03/11 12:46:19;;;;;;;5.60;2.60;;;;;;-10251.98;;;;107189;1274;64761;-34